Time;durP1;ratioP1;P1;durP2;ratioP2;P2;SDS_P1;SDS_P2;PMS_P1;PMS_P2;Temp;Humidity;BMP_temperature;BMP_pressure;BME280_temperature;BME280_humidity;BME280_pressure;Samples;Min_cycle;Max_cycle;Signal;HPM_P1;HPM_P2
2021/05/31 00:00:16;;;;;;;1.50;1.00;;;14.70;84.30;;;;;;5014059;28;20463;-81
2021/05/31 00:02:42;;;;;;;1.50;1.00;;;14.70;84.50;;;;;;5017427;28;20982;-81
2021/05/31 00:05:10;;;;;;;1.50;1.00;;;14.60;85.20;;;;;;5014600;28;20484;-81
2021/05/31 00:07:37;;;;;;;1.50;1.00;;;14.60;86.90;;;;;;5016508;28;20565;-81
2021/05/31 00:10:05;;;;;;;1.50;0.90;;;14.50;86.30;;;;;;5018047;28;20470;-81
2021/05/31 00:12:32;;;;;;;1.50;1.00;;;14.50;86.00;;;;;;5020411;28;20475;-81
2021/05/31 00:14:58;;;;;;;1.50;1.00;;;14.40;85.90;;;;;;5027396;28;20487;-81
2021/05/31 00:17:26;;;;;;;1.50;1.00;;;14.40;87.20;;;;;;5012712;28;20472;-80
2021/05/31 00:19:53;;;;;;;1.50;1.10;;;14.30;87.00;;;;;;5017716;28;20946;-81
2021/05/31 00:22:20;;;;;;;1.50;1.10;;;14.30;88.30;;;;;;5024699;28;21064;-81
2021/05/31 00:24:48;;;;;;;1.50;1.10;;;14.20;87.30;;;;;;5018145;28;20468;-81
2021/05/31 00:27:16;;;;;;;1.50;1.00;;;14.20;88.20;;;;;;5014492;28;20765;-81
2021/05/31 00:29:43;;;;;;;1.50;1.10;;;14.20;88.30;;;;;;5013865;28;20466;-81
2021/05/31 00:32:09;;;;;;;1.50;1.10;;;14.20;89.10;;;;;;5014456;28;20488;-82
2021/05/31 00:34:36;;;;;;;1.50;1.00;;;14.10;88.70;;;;;;5016144;28;20511;-84
2021/05/31 00:37:03;;;;;;;1.47;1.00;;;14.10;88.60;;;;;;5037444;28;20470;-84
2021/05/31 00:39:29;;;;;;;1.50;1.10;;;14.00;87.50;;;;;;5037323;28;20862;-81
2021/05/31 00:41:56;;;;;;;1.50;1.00;;;14.00;87.90;;;;;;5021409;28;21019;-81
2021/05/31 00:44:24;;;;;;;1.50;1.00;;;14.00;89.50;;;;;;5012537;28;20464;-81
2021/05/31 00:46:52;;;;;;;1.50;1.00;;;13.90;89.10;;;;;;5014154;28;20561;-81
2021/05/31 00:49:20;;;;;;;1.50;1.00;;;13.90;89.90;;;;;;5029640;28;20471;-81
2021/05/31 00:51:47;;;;;;;1.50;1.00;;;13.80;89.30;;;;;;5032953;28;20657;-81
2021/05/31 00:54:14;;;;;;;1.50;1.00;;;13.80;90.40;;;;;;5012586;28;20476;-81
2021/05/31 00:56:41;;;;;;;1.50;1.10;;;13.80;90.10;;;;;;5013304;28;20758;-81
2021/05/31 00:59:09;;;;;;;1.50;1.00;;;13.70;91.10;;;;;;5013301;28;20464;-81
2021/05/31 01:01:35;;;;;;;1.50;1.00;;;13.70;90.50;;;;;;5027862;28;20834;-83
2021/05/31 01:04:02;;;;;;;1.50;1.00;;;13.60;91.20;;;;;;5038449;28;20475;-84
2021/05/31 01:06:32;;;;;;;1.50;1.10;;;13.60;90.80;;;;;;5039121;28;20574;-83
2021/05/31 01:09:06;;;;;;;1.50;1.10;;;13.60;91.30;;;;;;5039569;28;20455;-83
2021/05/31 01:11:44;;;;;;;1.50;1.00;;;13.50;91.50;;;;;;5025992;28;20487;-84
2021/05/31 01:14:20;;;;;;;1.50;1.00;;;13.50;91.10;;;;;;5019575;28;20471;-84
2021/05/31 01:16:52;;;;;;;1.50;1.00;;;13.50;92.00;;;;;;5028937;28;20729;-84
2021/05/31 01:19:36;;;;;;;1.50;1.00;;;13.40;91.70;;;;;;5018651;28;20464;-83
2021/05/31 01:22:05;;;;;;;1.50;1.00;;;13.40;92.40;;;;;;5011871;28;20533;-83
2021/05/31 01:24:47;;;;;;;1.50;1.00;;;13.30;92.40;;;;;;5014528;28;20460;-83
2021/05/31 01:27:28;;;;;;;1.50;1.10;;;13.30;93.40;;;;;;4997328;28;20437;-84
2021/05/31 01:29:59;;;;;;;1.50;1.00;;;13.30;92.70;;;;;;5012578;28;20814;-84
2021/05/31 01:32:31;;;;;;;1.50;1.00;;;13.30;93.20;;;;;;5016665;28;20852;-83
2021/05/31 01:35:00;;;;;;;1.50;1.00;;;13.30;94.50;;;;;;5013805;28;20535;-85
2021/05/31 01:37:28;;;;;;;1.50;1.00;;;13.20;94.90;;;;;;5017147;28;20822;-83
2021/05/31 01:39:57;;;;;;;1.50;1.00;;;13.20;94.40;;;;;;5017754;28;20491;-83
2021/05/31 01:42:25;;;;;;;1.50;1.00;;;13.20;95.00;;;;;;5010358;28;21002;-84
2021/05/31 01:44:52;;;;;;;1.50;1.00;;;13.10;94.80;;;;;;5009928;28;20464;-85
2021/05/31 01:47:20;;;;;;;1.50;1.00;;;13.10;94.10;;;;;;5012024;28;20476;-88
2021/05/31 01:49:47;;;;;;;1.50;1.07;;;13.10;94.60;;;;;;5023327;28;20838;-84
2021/05/31 01:52:15;;;;;;;1.50;1.00;;;13.10;94.00;;;;;;5013798;28;20488;-85
2021/05/31 01:54:42;;;;;;;1.50;1.00;;;13.00;94.00;;;;;;5017572;28;20452;-84
2021/05/31 01:57:10;;;;;;;1.50;1.00;;;13.00;94.90;;;;;;5014782;28;20474;-81
2021/05/31 01:59:37;;;;;;;1.50;1.10;;;13.00;95.40;;;;;;5019252;28;20487;-80
2021/05/31 02:02:04;;;;;;;1.50;1.10;;;12.90;95.50;;;;;;5015639;28;20499;-82
2021/05/31 02:04:32;;;;;;;1.50;1.10;;;12.90;95.00;;;;;;5018110;28;20468;-83
2021/05/31 02:06:58;;;;;;;1.50;1.00;;;12.90;95.10;;;;;;5018079;28;20480;-83
2021/05/31 02:09:24;;;;;;;1.50;1.00;;;12.90;95.40;;;;;;5017504;28;20467;-83
2021/05/31 02:12:06;;;;;;;1.50;1.00;;;12.80;95.30;;;;;;5017279;28;20963;-82
2021/05/31 02:14:41;;;;;;;1.50;1.00;;;12.80;95.40;;;;;;5016924;28;20483;-82
2021/05/31 02:17:16;;;;;;;1.50;1.00;;;12.80;96.10;;;;;;5010997;28;20501;-80
2021/05/31 02:19:45;;;;;;;1.50;1.10;;;12.70;96.10;;;;;;5010946;28;20962;-80
2021/05/31 02:22:12;;;;;;;1.50;1.00;;;12.70;96.10;;;;;;5010552;28;20570;-80
2021/05/31 02:24:40;;;;;;;1.50;1.00;;;12.70;97.60;;;;;;5010720;28;20465;-80
2021/05/31 02:27:07;;;;;;;1.50;1.10;;;12.70;97.30;;;;;;5010160;28;20488;-80
2021/05/31 02:29:34;;;;;;;1.50;1.10;;;12.70;96.40;;;;;;5010848;28;20479;-80
2021/05/31 02:32:00;;;;;;;1.50;1.00;;;12.60;96.00;;;;;;5010525;28;20471;-80
2021/05/31 02:34:28;;;;;;;1.50;1.00;;;12.60;97.50;;;;;;5006838;28;20469;-80
2021/05/31 02:36:56;;;;;;;1.50;1.07;;;12.60;97.50;;;;;;5008773;28;20465;-80
2021/05/31 02:39:23;;;;;;;1.50;1.10;;;12.60;97.20;;;;;;5014160;28;20460;-80
2021/05/31 02:41:50;;;;;;;1.50;1.00;;;12.50;97.80;;;;;;5010165;28;20491;-80
2021/05/31 02:44:17;;;;;;;1.50;1.10;;;12.50;97.10;;;;;;5009817;28;20464;-80
2021/05/31 02:46:43;;;;;;;1.50;1.20;;;12.50;97.40;;;;;;5008067;28;20530;-80
2021/05/31 02:49:09;;;;;;;1.50;1.00;;;12.50;97.50;;;;;;5014550;28;20889;-80
2021/05/31 02:51:38;;;;;;;1.50;1.00;;;12.40;97.80;;;;;;5011588;28;20467;-80
2021/05/31 02:54:06;;;;;;;1.50;1.00;;;12.40;97.50;;;;;;5012621;28;20488;-80
2021/05/31 02:56:33;;;;;;;1.50;1.07;;;12.40;97.40;;;;;;5007738;28;20464;-80
2021/05/31 02:58:59;;;;;;;1.50;1.10;;;12.40;97.60;;;;;;5009622;28;20495;-80
2021/05/31 03:01:27;;;;;;;1.50;1.10;;;12.30;97.70;;;;;;5011272;28;20488;-80
2021/05/31 03:03:53;;;;;;;1.50;1.07;;;12.30;97.80;;;;;;5013254;28;20571;-80
2021/05/31 03:06:20;;;;;;;1.50;1.00;;;12.30;97.70;;;;;;5018020;28;20490;-80
2021/05/31 03:08:46;;;;;;;1.50;1.10;;;12.30;97.40;;;;;;5034092;28;20467;-80
2021/05/31 03:11:14;;;;;;;1.50;1.10;;;12.30;98.20;;;;;;5023130;28;20495;-80
2021/05/31 03:13:42;;;;;;;1.50;1.10;;;12.30;98.20;;;;;;5017678;28;20486;-82
2021/05/31 03:16:12;;;;;;;1.50;1.10;;;12.20;98.20;;;;;;5019635;28;20543;-82
2021/05/31 03:18:38;;;;;;;1.50;1.03;;;12.20;98.20;;;;;;5019955;28;20460;-82
2021/05/31 03:21:10;;;;;;;1.50;1.10;;;12.20;98.20;;;;;;5019712;28;20800;-82
2021/05/31 03:23:37;;;;;;;1.50;1.10;;;12.20;98.20;;;;;;5035968;28;20561;-82
2021/05/31 03:26:05;;;;;;;1.50;1.20;;;12.20;98.20;;;;;;5038651;28;20548;-82
2021/05/31 03:28:36;;;;;;;1.50;1.10;;;12.20;98.20;;;;;;5037827;28;21016;-83
2021/05/31 03:31:02;;;;;;;1.50;1.00;;;12.20;98.20;;;;;;5024378;28;20969;-83
2021/05/31 03:33:31;;;;;;;1.50;1.10;;;12.20;98.20;;;;;;5019620;28;20978;-83
2021/05/31 03:35:57;;;;;;;1.50;1.10;;;12.10;98.20;;;;;;5021783;28;20518;-84
2021/05/31 03:38:35;;;;;;;1.50;1.10;;;12.10;98.20;;;;;;5020843;28;20892;-84
2021/05/31 03:41:04;;;;;;;1.50;1.10;;;12.10;98.20;;;;;;5020886;28;20502;-84
2021/05/31 03:43:34;;;;;;;1.50;1.20;;;12.10;98.20;;;;;;5022075;28;20562;-84
2021/05/31 03:46:03;;;;;;;1.50;1.10;;;12.10;98.20;;;;;;5021571;28;20530;-83
2021/05/31 03:48:30;;;;;;;1.50;1.10;;;12.10;98.20;;;;;;5021657;28;20503;-83
2021/05/31 03:51:10;;;;;;;1.50;1.10;;;12.10;98.20;;;;;;5021340;28;20464;-84
2021/05/31 03:53:37;;;;;;;1.50;1.20;;;12.10;98.20;;;;;;5022451;28;20487;-85
2021/05/31 03:56:24;;;;;;;1.50;1.10;;;12.10;98.20;;;;;;5027008;28;20456;-85
2021/05/31 03:59:09;;;;;;;1.50;1.03;;;12.10;98.20;;;;;;5044392;28;20460;-84
2021/05/31 04:01:38;;;;;;;1.50;1.00;;;12.10;98.20;;;;;;5034400;28;20958;-83
2021/05/31 04:04:15;;;;;;;1.50;1.10;;;12.10;98.20;;;;;;5022905;28;20480;-83
2021/05/31 04:06:59;;;;;;;1.50;1.10;;;12.10;98.20;;;;;;5016165;28;20598;-82
2021/05/31 04:12:10;;;;;;;1.50;1.00;;;12.10;98.20;;;;;;5014633;28;20557;-82
2021/05/31 04:14:38;;;;;;;1.50;1.03;;;12.10;98.20;;;;;;5016551;28;20484;-82
2021/05/31 04:17:04;;;;;;;1.50;1.00;;;12.20;98.20;;;;;;5015439;28;20473;-81
2021/05/31 04:19:31;;;;;;;1.50;1.10;;;12.20;98.20;;;;;;5015611;28;21168;-81
2021/05/31 04:21:57;;;;;;;1.50;1.10;;;12.20;98.20;;;;;;5016649;28;20468;-81
2021/05/31 04:24:24;;;;;;;1.50;1.07;;;12.20;98.20;;;;;;5016697;28;20464;-81
2021/05/31 04:26:50;;;;;;;1.50;1.10;;;12.30;98.20;;;;;;5018785;28;20496;-81
2021/05/31 04:29:17;;;;;;;1.50;1.10;;;12.30;98.20;;;;;;5015721;28;20475;-81
2021/05/31 04:31:45;;;;;;;1.50;1.10;;;12.30;98.20;;;;;;5016024;28;20551;-81
2021/05/31 04:34:12;;;;;;;1.50;1.10;;;12.40;98.20;;;;;;5015210;28;20468;-81
2021/05/31 04:36:40;;;;;;;1.50;1.00;;;12.40;98.20;;;;;;5013509;28;20475;-81
2021/05/31 04:39:08;;;;;;;1.50;1.10;;;12.50;98.20;;;;;;5015761;28;20471;-81
2021/05/31 04:41:36;;;;;;;1.50;1.10;;;12.60;98.20;;;;;;5017745;28;20464;-80
2021/05/31 04:44:02;;;;;;;1.50;1.03;;;12.70;98.20;;;;;;5013075;28;20497;-80
2021/05/31 04:46:32;;;;;;;1.50;1.00;;;12.80;98.20;;;;;;5025974;28;20865;-80
2021/05/31 04:49:03;;;;;;;1.50;1.00;;;13.00;98.20;;;;;;5024919;28;20447;-80
2021/05/31 04:51:30;;;;;;;1.50;1.10;;;13.30;98.20;;;;;;5038813;28;20471;-80
2021/05/31 04:53:57;;;;;;;1.50;1.00;;;13.50;98.20;;;;;;5016242;28;20537;-81
2021/05/31 04:56:28;;;;;;;1.50;1.00;;;13.70;98.20;;;;;;5017784;28;20456;-80
2021/05/31 04:58:58;;;;;;;1.50;1.00;;;14.00;98.20;;;;;;5023226;28;20527;-80
2021/05/31 05:01:36;;;;;;;1.50;1.00;;;14.20;98.20;;;;;;5023888;28;20464;-80
2021/05/31 05:04:08;;;;;;;1.50;1.00;;;14.50;98.20;;;;;;5022389;28;20479;-81
2021/05/31 05:06:37;;;;;;;1.50;1.00;;;14.80;97.00;;;;;;5018197;28;20488;-81
2021/05/31 05:09:05;;;;;;;1.50;1.00;;;15.10;95.10;;;;;;5021711;28;20465;-81
2021/05/31 05:11:46;;;;;;;1.50;1.00;;;15.30;94.10;;;;;;5016776;28;20460;-81
2021/05/31 05:14:18;;;;;;;1.50;1.00;;;15.60;93.50;;;;;;5014592;28;20487;-81
2021/05/31 05:16:45;;;;;;;1.50;1.00;;;15.80;93.20;;;;;;5029823;28;20492;-80
2021/05/31 05:19:13;;;;;;;1.50;1.00;;;16.10;92.60;;;;;;5018114;28;20464;-81
2021/05/31 05:24:24;;;;;;;1.50;1.00;;;16.70;90.40;;;;;;5026165;28;20550;-80
2021/05/31 05:26:53;;;;;;;1.50;1.00;;;17.00;88.90;;;;;;5035182;28;20498;-80
2021/05/31 05:29:20;;;;;;;1.50;1.00;;;17.20;88.40;;;;;;5021968;28;20470;-80
2021/05/31 05:31:47;;;;;;;1.50;1.00;;;17.40;88.20;;;;;;5022347;28;20548;-80
2021/05/31 05:34:22;;;;;;;1.50;0.93;;;17.60;86.70;;;;;;5015581;28;20478;-81
2021/05/31 05:36:59;;;;;;;1.50;0.90;;;17.90;86.50;;;;;;5023241;28;20490;-81
2021/05/31 05:42:45;;;;;;;1.50;0.90;;;18.10;87.00;;;;;;4995891;28;20473;-81
2021/05/31 05:45:44;;;;;;;1.53;1.10;;;18.30;87.20;;;;;;5016313;28;20468;-82
2021/05/31 05:48:11;;;;;;;1.50;0.90;;;18.30;87.10;;;;;;5027879;28;20482;-81
2021/05/31 05:50:39;;;;;;;1.50;0.90;;;18.40;86.90;;;;;;5027159;28;20468;-81
2021/05/31 05:53:05;;;;;;;1.50;1.00;;;18.40;87.10;;;;;;5017291;28;20541;-82
2021/05/31 05:55:38;;;;;;;1.50;0.90;;;18.50;86.60;;;;;;5016677;28;20475;-81
2021/05/31 05:58:17;;;;;;;1.50;0.90;;;18.60;86.50;;;;;;5028281;28;20476;-81
2021/05/31 06:00:44;;;;;;;1.50;0.90;;;18.80;86.50;;;;;;5021722;28;20514;-81
2021/05/31 06:03:29;;;;;;;1.50;0.90;;;18.90;85.80;;;;;;5024617;28;20995;-81
2021/05/31 06:06:04;;;;;;;1.50;0.90;;;19.10;84.70;;;;;;5017790;28;20486;-79
2021/05/31 06:08:32;;;;;;;1.50;0.90;;;19.40;83.90;;;;;;5019011;28;20468;-80
2021/05/31 06:11:01;;;;;;;1.50;0.90;;;19.70;83.80;;;;;;5019933;28;20765;-82
2021/05/31 06:13:27;;;;;;;1.50;0.93;;;19.90;82.70;;;;;;5025276;28;20996;-80
2021/05/31 06:16:00;;;;;;;1.50;1.00;;;20.10;82.00;;;;;;5023199;28;20451;-80
2021/05/31 06:18:28;;;;;;;1.50;0.90;;;20.40;78.50;;;;;;5017545;28;20998;-80
2021/05/31 06:21:05;;;;;;;1.50;0.90;;;20.50;76.80;;;;;;5024416;28;20790;-81
2021/05/31 06:23:32;;;;;;;1.50;1.00;;;20.50;77.20;;;;;;5018665;28;20557;-80
2021/05/31 06:25:59;;;;;;;1.50;0.90;;;20.50;76.30;;;;;;5024897;28;20491;-81
2021/05/31 06:28:29;;;;;;;1.50;0.90;;;20.50;76.60;;;;;;5020384;28;20499;-81
2021/05/31 06:30:57;;;;;;;1.50;0.90;;;20.70;76.00;;;;;;5025622;28;20468;-81
2021/05/31 06:33:23;;;;;;;1.50;0.90;;;20.90;75.80;;;;;;5015891;28;20495;-82
2021/05/31 06:35:55;;;;;;;1.50;0.90;;;21.10;75.50;;;;;;5024790;28;20475;-81
2021/05/31 06:38:41;;;;;;;1.50;0.90;;;21.30;74.00;;;;;;5018900;28;20483;-81
2021/05/31 06:41:07;;;;;;;1.50;0.90;;;21.50;73.20;;;;;;5018759;28;20464;-81
2021/05/31 06:43:38;;;;;;;1.50;0.90;;;21.70;72.30;;;;;;5031059;28;20496;-80
2021/05/31 06:46:08;;;;;;;1.50;0.90;;;21.90;72.90;;;;;;5020068;28;20484;-80
2021/05/31 06:48:49;;;;;;;1.50;0.90;;;22.00;71.30;;;;;;5022849;28;20522;-81
2021/05/31 06:51:35;;;;;;;1.50;0.90;;;22.20;71.70;;;;;;5023316;28;20480;-80
2021/05/31 06:54:03;;;;;;;1.50;0.90;;;22.30;72.50;;;;;;5018875;28;20518;-82
2021/05/31 06:56:32;;;;;;;1.47;0.87;;;22.50;72.00;;;;;;5022903;28;20455;-81
2021/05/31 06:59:06;;;;;;;1.47;0.90;;;22.60;71.20;;;;;;5029710;28;20451;-81
2021/05/31 07:01:55;;;;;;;1.50;0.90;;;22.80;71.10;;;;;;5024501;28;20609;-81
2021/05/31 07:04:21;;;;;;;1.47;0.90;;;23.00;70.90;;;;;;5022895;28;20456;-81
2021/05/31 07:06:48;;;;;;;1.43;0.90;;;23.10;71.00;;;;;;5021821;28;20492;-80
2021/05/31 07:09:19;;;;;;;1.50;1.03;;;23.00;69.90;;;;;;5017113;28;20788;-81
2021/05/31 07:11:51;;;;;;;1.50;0.90;;;23.20;71.20;;;;;;5025098;28;20466;-81
2021/05/31 07:14:42;;;;;;;;;;;;;;;;;;;;;
2021/05/31 07:17:09;;;;;;;1.50;0.90;;;23.60;70.20;;;;;;5021516;28;20861;-81
2021/05/31 07:19:35;;;;;;;1.50;0.90;;;23.60;68.80;;;;;;5025060;28;20502;-81
2021/05/31 07:22:02;;;;;;;1.47;0.90;;;23.70;69.90;;;;;;5036947;28;20942;-81
2021/05/31 07:24:30;;;;;;;1.43;0.83;;;23.60;69.20;;;;;;5029916;28;20527;-81
2021/05/31 07:26:56;;;;;;;1.50;0.90;;;23.70;69.20;;;;;;5013435;28;20457;-85
2021/05/31 07:29:23;;;;;;;1.47;0.90;;;23.80;69.30;;;;;;5009766;28;20465;-85
2021/05/31 07:32:21;;;;;;;1.50;0.90;;;23.80;68.80;;;;;;5023799;28;20470;-85
2021/05/31 07:34:56;;;;;;;1.50;0.90;;;23.80;68.30;;;;;;5020486;28;20843;-85
2021/05/31 07:37:23;;;;;;;1.50;0.90;;;23.90;69.30;;;;;;5018645;28;20541;-87
2021/05/31 07:39:51;;;;;;;1.50;0.90;;;24.10;67.90;;;;;;5016383;28;20468;-86
2021/05/31 07:42:18;;;;;;;1.50;0.90;;;24.10;69.80;;;;;;5023989;28;21011;-86
2021/05/31 07:44:45;;;;;;;1.50;0.90;;;24.20;68.90;;;;;;5016822;28;20498;-84
2021/05/31 07:47:23;;;;;;;1.50;0.90;;;24.30;67.60;;;;;;5007858;28;21039;-88
2021/05/31 07:49:50;;;;;;;1.50;0.90;;;24.40;69.00;;;;;;5018686;28;20468;-86
2021/05/31 07:52:20;;;;;;;1.43;0.80;;;24.50;68.00;;;;;;5024487;28;20489;-84
2021/05/31 07:54:47;;;;;;;1.50;0.80;;;24.70;67.50;;;;;;5019505;28;20571;-84
2021/05/31 07:57:15;;;;;;;1.50;0.90;;;24.80;68.00;;;;;;5018839;28;20647;-85
2021/05/31 07:59:42;;;;;;;1.47;0.90;;;24.80;68.80;;;;;;5018492;28;20510;-86
2021/05/31 08:02:13;;;;;;;1.50;0.90;;;24.80;67.30;;;;;;5020022;28;20542;-85
2021/05/31 08:04:40;;;;;;;1.50;0.90;;;24.80;67.10;;;;;;5022228;28;20504;-85
2021/05/31 08:07:17;;;;;;;1.50;0.90;;;24.90;68.00;;;;;;5017764;28;20483;-86
2021/05/31 08:09:55;;;;;;;1.50;0.90;;;24.90;68.70;;;;;;5029731;28;20466;-86
2021/05/31 08:12:23;;;;;;;1.43;0.80;;;24.90;66.90;;;;;;5021176;28;20912;-86
2021/05/31 08:14:50;;;;;;;1.47;0.80;;;25.00;68.30;;;;;;5023602;28;20466;-87
2021/05/31 08:17:17;;;;;;;1.50;0.90;;;25.10;66.50;;;;;;5018465;28;20567;-86
2021/05/31 08:19:43;;;;;;;1.43;0.80;;;25.30;66.80;;;;;;5024638;28;20595;-86
2021/05/31 08:22:10;;;;;;;1.50;0.83;;;25.40;66.60;;;;;;5020517;28;20565;-85
2021/05/31 08:24:37;;;;;;;1.53;1.00;;;25.50;66.80;;;;;;5023788;28;20994;-85
2021/05/31 08:27:04;;;;;;;1.47;0.80;;;25.60;66.70;;;;;;5018475;28;20483;-86
2021/05/31 08:29:32;;;;;;;1.50;0.80;;;25.60;66.00;;;;;;5025181;28;20958;-84
2021/05/31 08:31:59;;;;;;;1.50;0.90;;;25.70;65.20;;;;;;5011699;28;20479;-86
2021/05/31 08:34:28;;;;;;;1.50;1.00;;;25.70;65.10;;;;;;5023680;28;20456;-86
2021/05/31 08:36:54;;;;;;;1.50;0.90;;;25.80;67.40;;;;;;5019840;28;20568;-86
2021/05/31 08:39:23;;;;;;;1.50;0.90;;;25.90;66.20;;;;;;5027166;28;20539;-86
2021/05/31 08:41:51;;;;;;;1.50;0.90;;;26.00;65.20;;;;;;5014539;28;20841;-86
2021/05/31 08:44:32;;;;;;;1.50;0.87;;;26.00;65.90;;;;;;5023003;28;20598;-85
2021/05/31 08:47:05;;;;;;;1.50;0.80;;;26.10;65.90;;;;;;5022124;28;20557;-85
2021/05/31 08:49:31;;;;;;;1.47;0.80;;;26.20;65.50;;;;;;5022034;28;20887;-85
2021/05/31 08:51:59;;;;;;;1.50;0.90;;;26.30;64.60;;;;;;5020404;28;20474;-84
2021/05/31 08:54:32;;;;;;;1.50;0.80;;;26.50;64.90;;;;;;5020898;28;20952;-86
2021/05/31 08:56:58;;;;;;;1.50;0.83;;;26.70;63.30;;;;;;5014028;28;20487;-85
2021/05/31 08:59:33;;;;;;;1.50;0.90;;;26.80;63.30;;;;;;5024329;28;21139;-86
2021/05/31 09:02:01;;;;;;;1.50;0.90;;;26.80;64.10;;;;;;5017165;28;20564;-86
2021/05/31 09:05:13;;;;;;;1.50;0.90;;;26.80;64.30;;;;;;5024576;28;20464;-85
2021/05/31 09:07:51;;;;;;;1.47;0.80;;;26.80;65.10;;;;;;5022822;28;20481;-83
2021/05/31 09:10:19;;;;;;;1.50;0.80;;;26.70;64.00;;;;;;5016912;28;20989;-83
2021/05/31 09:12:46;;;;;;;1.47;0.90;;;26.60;64.20;;;;;;5014251;28;20490;-87
2021/05/31 09:15:14;;;;;;;1.47;0.80;;;26.70;62.80;;;;;;5016172;28;20543;-87
2021/05/31 09:17:42;;;;;;;1.50;0.83;;;26.80;64.40;;;;;;5026796;28;20517;-86
2021/05/31 09:20:10;;;;;;;1.47;0.80;;;26.80;63.50;;;;;;5017579;28;20559;-85
2021/05/31 09:22:44;;;;;;;1.50;0.80;;;26.70;64.50;;;;;;5025643;28;20544;-82
2021/05/31 09:25:11;;;;;;;1.47;0.80;;;26.80;62.20;;;;;;5017913;28;20549;-84
2021/05/31 09:27:39;;;;;;;1.47;0.80;;;26.90;61.80;;;;;;5016962;28;20478;-84
2021/05/31 09:30:07;;;;;;;1.50;0.80;;;27.00;62.60;;;;;;5019474;28;20470;-85
2021/05/31 09:32:34;;;;;;;1.50;0.80;;;27.20;61.60;;;;;;5016099;28;20482;-85
2021/05/31 09:35:05;;;;;;;1.50;0.80;;;27.40;63.30;;;;;;5016272;28;20496;-84
2021/05/31 09:37:33;;;;;;;1.50;0.80;;;27.70;63.60;;;;;;5019992;28;21115;-83
2021/05/31 09:40:03;;;;;;;1.50;0.80;;;27.80;60.30;;;;;;5019284;28;20958;-83
2021/05/31 09:42:30;;;;;;;1.47;0.80;;;28.00;60.80;;;;;;5020306;28;20490;-84
2021/05/31 09:45:03;;;;;;;1.47;0.80;;;28.10;60.30;;;;;;5024881;28;20524;-86
2021/05/31 09:47:32;;;;;;;1.47;0.80;;;28.10;62.30;;;;;;5025347;28;20568;-85
2021/05/31 09:50:05;;;;;;;1.47;0.80;;;28.10;61.00;;;;;;5016447;28;21101;-86
2021/05/31 09:52:32;;;;;;;1.47;0.80;;;28.10;61.70;;;;;;5021288;28;20483;-85
2021/05/31 09:55:01;;;;;;;1.50;0.80;;;28.20;62.70;;;;;;5014842;28;20502;-85
2021/05/31 09:57:28;;;;;;;1.50;0.80;;;28.50;60.40;;;;;;5013403;28;21004;-85
2021/05/31 09:59:58;;;;;;;1.50;0.90;;;28.50;61.90;;;;;;5017487;28;20550;-83
2021/05/31 10:02:37;;;;;;;1.43;0.80;;;28.70;61.20;;;;;;5013420;28;21063;-82
2021/05/31 10:05:12;;;;;;;1.40;0.80;;;28.70;59.70;;;;;;5012443;28;20468;-82
2021/05/31 10:07:45;;;;;;;1.50;0.80;;;28.80;60.00;;;;;;5019569;28;20535;-81
2021/05/31 10:10:13;;;;;;;1.50;0.80;;;28.90;60.50;;;;;;5014733;28;20479;-82
2021/05/31 10:12:39;;;;;;;1.47;0.80;;;29.00;59.60;;;;;;5020336;28;20525;-82
2021/05/31 10:15:07;;;;;;;1.50;0.80;;;28.90;58.20;;;;;;5012661;28;20475;-81
2021/05/31 10:17:33;;;;;;;1.47;0.80;;;28.50;59.60;;;;;;5015725;28;20489;-81
2021/05/31 10:20:02;;;;;;;1.47;0.80;;;28.60;61.20;;;;;;5014941;28;20513;-80
2021/05/31 10:22:31;;;;;;;1.47;0.80;;;28.70;59.30;;;;;;5021481;28;20490;-80
2021/05/31 10:24:59;;;;;;;1.47;0.80;;;28.90;60.30;;;;;;5020073;28;20477;-81
2021/05/31 10:27:29;;;;;;;1.47;0.90;;;29.10;59.50;;;;;;5021593;28;20598;-80
2021/05/31 10:30:04;;;;;;;1.40;0.80;;;29.10;59.40;;;;;;5019242;28;20579;-82
2021/05/31 10:32:31;;;;;;;1.50;0.80;;;29.30;58.50;;;;;;5018584;28;20481;-80
2021/05/31 10:34:57;;;;;;;1.47;1.00;;;29.30;58.80;;;;;;5017521;28;20544;-81
2021/05/31 10:37:25;;;;;;;1.47;0.80;;;29.30;58.30;;;;;;5018720;28;20474;-83
2021/05/31 10:40:06;;;;;;;1.47;0.80;;;29.30;58.10;;;;;;5019981;28;20479;-81
2021/05/31 10:42:43;;;;;;;1.43;0.80;;;29.40;57.50;;;;;;5021113;28;20554;-83
2021/05/31 10:45:30;;;;;;;1.47;0.80;;;29.60;56.80;;;;;;5017357;28;20227;-84
2021/05/31 10:47:57;;;;;;;1.43;0.80;;;29.80;56.30;;;;;;5016655;28;20564;-80
2021/05/31 10:50:29;;;;;;;1.43;0.80;;;29.90;57.40;;;;;;5017555;28;20207;-79
2021/05/31 10:52:56;;;;;;;1.43;0.80;;;29.80;55.30;;;;;;5019584;28;20486;-81
2021/05/31 10:55:26;;;;;;;1.50;0.80;;;29.60;55.50;;;;;;5022910;28;20466;-80
2021/05/31 10:57:53;;;;;;;1.47;0.80;;;29.40;56.80;;;;;;5020854;28;20851;-81
2021/05/31 11:00:26;;;;;;;1.43;0.80;;;29.50;56.80;;;;;;5015757;28;20493;-79
2021/05/31 11:03:07;;;;;;;1.43;0.80;;;29.40;56.40;;;;;;5026036;28;20577;-80
2021/05/31 11:05:35;;;;;;;1.47;0.90;;;29.10;56.90;;;;;;5015167;28;20516;-80
2021/05/31 11:08:02;;;;;;;1.40;0.80;;;29.20;58.00;;;;;;5029685;28;20517;-79
2021/05/31 11:10:33;;;;;;;1.43;0.90;;;29.30;55.10;;;;;;5023186;28;20479;-82
2021/05/31 11:13:14;;;;;;;1.50;0.80;;;29.10;56.10;;;;;;5026697;28;20544;-80
2021/05/31 11:15:40;;;;;;;1.43;0.80;;;29.10;56.80;;;;;;5021900;28;20468;-83
2021/05/31 11:18:07;;;;;;;1.47;0.80;;;29.20;57.10;;;;;;5025110;28;20492;-83
2021/05/31 11:20:33;;;;;;;1.43;0.80;;;29.20;57.30;;;;;;5021128;28;20528;-80
2021/05/31 11:23:02;;;;;;;1.47;0.80;;;29.20;56.10;;;;;;5030776;28;20487;-85
2021/05/31 11:25:31;;;;;;;1.50;0.90;;;29.30;57.20;;;;;;5014908;28;20517;-80
2021/05/31 11:28:02;;;;;;;1.47;0.80;;;29.30;55.50;;;;;;5022138;28;20939;-81
2021/05/31 11:30:31;;;;;;;1.43;0.80;;;29.30;56.60;;;;;;5023647;28;20998;-84
2021/05/31 11:32:59;;;;;;;1.43;0.80;;;29.20;55.70;;;;;;5023644;28;20490;-79
2021/05/31 11:35:27;;;;;;;1.50;0.80;;;29.00;55.30;;;;;;5017575;28;20463;-84
2021/05/31 11:37:57;;;;;;;1.47;0.80;;;28.50;56.40;;;;;;5026229;28;20495;-82
2021/05/31 11:40:31;;;;;;;1.40;0.80;;;28.40;57.60;;;;;;5024472;28;20473;-81
2021/05/31 11:43:01;;;;;;;1.47;0.80;;;28.50;58.00;;;;;;5024144;28;20501;-81
2021/05/31 11:45:33;;;;;;;1.43;0.80;;;28.50;54.90;;;;;;5014842;28;20847;-80
2021/05/31 11:48:01;;;;;;;1.47;0.80;;;28.80;57.00;;;;;;5025794;28;20560;-81
2021/05/31 11:50:28;;;;;;;1.43;0.80;;;29.10;57.10;;;;;;5015194;28;20818;-82
2021/05/31 11:52:55;;;;;;;1.47;0.80;;;29.20;57.20;;;;;;5024047;28;20494;-80
2021/05/31 11:55:23;;;;;;;1.43;0.80;;;29.50;57.20;;;;;;5014836;28;20463;-79
2021/05/31 11:57:52;;;;;;;1.47;0.80;;;29.70;56.50;;;;;;5025187;28;20486;-81
2021/05/31 12:00:23;;;;;;;1.40;0.80;;;30.00;56.50;;;;;;5019772;28;20561;-78
2021/05/31 12:02:49;;;;;;;1.50;0.80;;;30.20;54.40;;;;;;5024419;28;20520;-81
2021/05/31 12:05:29;;;;;;;1.47;0.80;;;30.10;53.60;;;;;;5028288;28;20506;-79
2021/05/31 12:08:00;;;;;;;1.43;0.80;;;29.70;54.30;;;;;;5028472;28;20489;-78
2021/05/31 12:10:27;;;;;;;1.40;0.80;;;29.30;54.30;;;;;;5028901;28;20464;-82
2021/05/31 12:12:55;;;;;;;1.43;0.80;;;29.20;54.50;;;;;;5039688;28;20494;-81
2021/05/31 12:15:22;;;;;;;1.47;0.80;;;29.50;56.20;;;;;;5015956;28;20468;-79
2021/05/31 12:17:48;;;;;;;1.47;0.80;;;29.70;55.00;;;;;;5017757;28;20699;-77
2021/05/31 12:20:15;;;;;;;1.50;1.00;;;29.70;54.60;;;;;;5019609;28;20467;-78
2021/05/31 12:22:41;;;;;;;1.43;0.80;;;29.80;53.70;;;;;;5017493;28;20771;-78
2021/05/31 12:25:10;;;;;;;1.50;1.00;;;30.00;55.60;;;;;;5015658;28;20906;-81
2021/05/31 12:27:42;;;;;;;1.50;1.00;;;30.00;54.30;;;;;;5021975;28;20477;-79
2021/05/31 12:30:15;;;;;;;1.50;0.80;;;30.10;55.00;;;;;;5022194;28;20462;-79
2021/05/31 12:32:41;;;;;;;1.43;0.87;;;29.60;54.30;;;;;;5016605;28;21068;-77
2021/05/31 12:35:09;;;;;;;1.60;1.20;;;29.50;55.50;;;;;;5010584;28;20782;-78
2021/05/31 12:37:37;;;;;;;1.43;0.80;;;29.80;57.20;;;;;;5018718;28;20482;-77
2021/05/31 12:40:06;;;;;;;1.43;0.80;;;30.00;54.30;;;;;;5010884;28;20478;-79
2021/05/31 12:42:34;;;;;;;1.43;0.80;;;30.00;54.30;;;;;;5017933;28;20607;-78
2021/05/31 12:45:01;;;;;;;1.40;0.80;;;29.80;54.30;;;;;;5011572;28;20964;-78
2021/05/31 12:47:36;;;;;;;1.43;0.80;;;29.80;55.90;;;;;;5015203;28;20560;-79
2021/05/31 12:50:10;;;;;;;1.43;0.80;;;30.00;53.80;;;;;;5021865;28;20469;-81
2021/05/31 12:52:42;;;;;;;1.43;0.80;;;30.40;57.20;;;;;;5021412;28;20493;-77
2021/05/31 12:55:10;;;;;;;1.50;0.90;;;30.50;53.70;;;;;;5014154;28;20204;-78
2021/05/31 12:57:39;;;;;;;1.43;0.80;;;30.20;53.50;;;;;;5016705;28;20474;-78
2021/05/31 13:00:08;;;;;;;1.50;1.10;;;30.10;54.40;;;;;;5013163;28;20467;-78
2021/05/31 13:02:41;;;;;;;1.47;0.90;;;30.10;55.70;;;;;;5016391;28;20556;-78
2021/05/31 13:05:10;;;;;;;1.40;0.80;;;30.20;56.20;;;;;;5018902;28;20467;-76
2021/05/31 13:07:39;;;;;;;1.40;0.80;;;30.50;55.10;;;;;;5022634;28;20508;-80
2021/05/31 13:10:15;;;;;;;1.43;0.80;;;30.60;54.40;;;;;;5026076;28;20464;-80